This is the latest recevied weather packets stored in our database for station/object N1ORT. If no packets are shown the sender has not sent any weather packets the latest 10 day(s).
| Time | Temp. | Humidity | Pressure | Rain* | Wind** | Luminosity | Snow |
|---|---|---|---|---|---|---|---|
| 1777730093 | 7.22° C | 97% | 1010.6 hPa | 0 mm | - | 153 W/m² | - |
| 1777729790 | 7.22° C | 97% | 1010.7 hPa | 0 mm | - | 128 W/m² | - |
| 1777729487 | 7.22° C | 97% | 1010.6 hPa | 0 mm | - | 117 W/m² | - |
| 1777729184 | 7.22° C | 98% | 1010.5 hPa | 0 mm | - | 131 W/m² | - |
| 1777728879 | 7.22° C | 98% | 1010.4 hPa | 0 mm | - | 238 W/m² | - |
| 1777728572 | 7.22° C | 98% | 1010.6 hPa | 0.51 mm | - | 216 W/m² | - |
| 1777728268 | 6.67° C | 98% | 1010.5 hPa | 0.51 mm | - | 199 W/m² | - |
| 1777727966 | 6.67° C | 98% | 1010.3 hPa | 2.29 mm | - | 212 W/m² | - |
| 1777727662 | 6.11° C | 98% | 1010.5 hPa | 2.29 mm | - | 144 W/m² | - |
| 1777727359 | 6.11° C | 98% | 1010.8 hPa | 2.29 mm | - | 62 W/m² | - |
| 1777727057 | 6.11° C | 98% | 1010.9 hPa | 2.29 mm | - | 52 W/m² | - |
| 1777726754 | 6.11° C | 98% | 1011.1 hPa | 1.78 mm | - | 36 W/m² | - |
| 1777726451 | 6.11° C | 97% | 1010.9 hPa | 2.29 mm | - | 38 W/m² | - |
| 1777726147 | 6.11° C | 97% | 1010.8 hPa | 2.29 mm | - | 51 W/m² | - |
| 1777725844 | 6.11° C | 97% | 1010.9 hPa | 0.51 mm | - | 54 W/m² | - |
| 1777725541 | 6.11° C | 97% | 1010.9 hPa | 0 mm | - | 49 W/m² | - |
| 1777725239 | 6.11° C | 96% | 1010.6 hPa | 0 mm | - | 64 W/m² | - |
| 1777724931 | 6.11° C | 96% | 1010.5 hPa | 0.51 mm | - | 91 W/m² | - |
| 1777724626 | 6.11° C | 96% | 1010.9 hPa | 0.51 mm | - | 51 W/m² | - |
| 1777724325 | 6.11° C | 95% | 1010.7 hPa | 0.51 mm | - | 55 W/m² | - |
| 1777724022 | 6.11° C | 95% | 1011 hPa | 2.29 mm | - | 59 W/m² | - |
| 1777723719 | 5.56° C | 94% | 1011.2 hPa | 3.05 mm | - | 45 W/m² | - |
| 1777723415 | 5.56° C | 94% | 1011.1 hPa | 2.29 mm | - | 43 W/m² | - |
| 1777723113 | 6.11° C | 93% | 1010.9 hPa | 3.05 mm | - | 27 W/m² | - |
| 1777722810 | 6.11° C | 91% | 1011 hPa | 3.05 mm | - | 24 W/m² | - |
* Rain latest hour (hover to see other rain measurements)
** Current wind speed in m/s (hover to see current wind gust speed)